Time,TemperatureF,DewpointF,PressureIn,WindDirection,WindDirectionDegrees,WindSpeedMPH,WindSpeedGustMPH,Humidity,HourlyPrecipIn,Conditions,Clouds,dailyrainin,SoftwareType,DateUTC
2013-03-14 00:00:00,33.3,17.5,30.08,West,270,7.8,14.3,52,0.00,,,0.00,WUHU216HW,2013-03-14 04:00:00,
2013-03-14 00:05:00,33.1,17.3,30.08,West,270,7.4,11.4,52,0.00,,,0.00,WUHU216HW,2013-03-14 04:05:00,
2013-03-14 00:10:00,33.1,17.3,30.08,WNW,293,8.1,11.4,52,0.00,,,0.00,WUHU216HW,2013-03-14 04:10:00,
2013-03-14 00:15:00,33.1,16.5,30.08,WNW,293,8.5,12.1,50,0.00,,,0.00,WUHU216HW,2013-03-14 04:15:00,
2013-03-14 00:20:00,33.1,15.9,30.08,West,270,15.2,16.3,49,0.00,,,0.00,WUHU216HW,2013-03-14 04:20:00,
2013-03-14 00:25:00,33.1,15.5,30.08,West,270,8.7,16.3,48,0.00,,,0.00,WUHU216HW,2013-03-14 04:25:00,
2013-03-14 00:30:00,33.1,15.9,30.08,NW,315,4.7,14.8,49,0.00,,,0.00,WUHU216HW,2013-03-14 04:30:00,
2013-03-14 00:35:00,33.1,15.9,30.08,West,270,7.6,10.5,49,0.00,,,0.00,WUHU216HW,2013-03-14 04:35:00,
2013-03-14 00:40:00,32.9,15.8,30.08,WNW,293,3.4,10.5,49,0.00,,,0.00,WUHU216HW,2013-03-14 04:40:00,
2013-03-14 00:45:00,32.9,15.8,30.08,WNW,293,4.0,9.8,49,0.00,,,0.00,WUHU216HW,2013-03-14 04:45:00,
2013-03-14 00:50:00,32.9,15.8,30.08,NW,315,2.9,10.1,49,0.00,,,0.00,WUHU216HW,2013-03-14 04:50:00,
2013-03-14 00:55:00,32.9,15.8,30.08,WNW,293,11.2,15.2,49,0.00,,,0.00,WUHU216HW,2013-03-14 04:55:00,
2013-03-14 01:00:00,32.9,15.8,30.08,WNW,293,5.4,15.2,49,0.00,,,0.00,WUHU216HW,2013-03-14 05:00:00,
2013-03-14 01:05:00,32.8,15.7,30.08,WNW,293,9.8,11.6,49,0.00,,,0.00,WUHU216HW,2013-03-14 05:05:00,
2013-03-14 01:10:00,32.8,15.7,30.08,NW,315,4.7,12.8,49,0.00,,,0.00,WUHU216HW,2013-03-14 05:10:00,
2013-03-14 01:15:00,32.8,16.1,30.08,NNW,338,4.3,12.8,50,0.00,,,0.00,WUHU216HW,2013-03-14 05:15:00,
2013-03-14 01:20:00,32.8,16.1,30.08,NW,315,8.5,11.9,50,0.00,,,0.00,WUHU216HW,2013-03-14 05:20:00,
2013-03-14 01:25:00,32.8,16.1,30.08,West,270,4.9,12.1,50,0.00,,,0.00,WUHU216HW,2013-03-14 05:25:00,
2013-03-14 01:30:00,32.6,15.9,30.08,NNW,338,2.5,12.1,50,0.00,,,0.00,WUHU216HW,2013-03-14 05:30:00,
2013-03-14 01:35:00,32.6,15.9,30.08,NNW,338,5.4,9.6,50,0.00,,,0.00,WUHU216HW,2013-03-14 05:35:00,
2013-03-14 01:40:00,32.6,15.9,30.08,WNW,293,2.9,9.6,50,0.00,,,0.00,WUHU216HW,2013-03-14 05:40:00,
2013-03-14 01:45:00,32.6,16.4,30.09,NW,315,3.4,8.5,51,0.00,,,0.00,WUHU216HW,2013-03-14 05:45:00,
2013-03-14 01:50:00,32.6,16.4,30.09,NNW,338,3.8,8.5,51,0.00,,,0.00,WUHU216HW,2013-03-14 05:50:00,
2013-03-14 01:55:00,32.4,16.7,30.09,North,0,2.9,11.9,52,0.00,,,0.00,WUHU216HW,2013-03-14 05:55:00,
2013-03-14 02:00:00,32.2,16.9,30.09,WNW,293,3.1,13.4,53,0.00,,,0.00,WUHU216HW,2013-03-14 06:00:00,
2013-03-14 02:05:00,32.0,18.1,30.09,West,270,11.4,13.9,56,0.00,,,0.00,WUHU216HW,2013-03-14 06:05:00,
2013-03-14 02:10:00,31.9,17.9,30.09,West,270,2.5,13.9,56,0.00,,,0.00,WUHU216HW,2013-03-14 06:10:00,
2013-03-14 02:15:00,31.7,17.7,30.09,West,270,5.8,11.4,56,0.00,,,0.00,WUHU216HW,2013-03-14 06:15:00,
2013-03-14 02:20:00,31.5,18.0,30.09,NW,315,5.4,10.7,57,0.00,,,0.00,WUHU216HW,2013-03-14 06:20:00,
2013-03-14 02:25:00,31.5,18.5,30.09,West,270,7.6,11.6,58,0.00,,,0.00,WUHU216HW,2013-03-14 06:25:00,
2013-03-14 02:30:00,31.5,17.6,30.09,West,270,10.1,11.6,56,0.00,,,0.00,WUHU216HW,2013-03-14 06:30:00,
2013-03-14 02:35:00,31.5,17.1,30.09,NNE,23,3.6,13.0,55,0.00,,,0.00,WUHU216HW,2013-03-14 06:35:00,
2013-03-14 02:40:00,31.5,17.1,30.09,West,270,6.3,13.0,55,0.00,,,0.00,WUHU216HW,2013-03-14 06:40:00,
2013-03-14 02:45:00,31.3,16.9,30.09,North,0,6.3,10.1,55,0.00,,,0.00,WUHU216HW,2013-03-14 06:45:00,
2013-03-14 02:50:00,31.1,17.2,30.09,West,270,8.5,8.5,56,0.00,,,0.00,WUHU216HW,2013-03-14 06:50:00,
2013-03-14 02:55:00,31.1,17.2,30.09,West,270,0.4,8.5,56,0.00,,,0.00,WUHU216HW,2013-03-14 06:55:00,
2013-03-14 03:00:00,31.1,17.2,30.09,WNW,293,7.6,8.5,56,0.00,,,0.00,WUHU216HW,2013-03-14 07:00:00,
2013-03-14 03:05:00,31.0,17.0,30.09,WSW,248,1.8,9.4,56,0.00,,,0.00,WUHU216HW,2013-03-14 07:05:00,
2013-03-14 03:10:00,31.0,17.0,30.08,West,270,1.8,9.4,56,0.00,,,0.00,WUHU216HW,2013-03-14 07:10:00,
2013-03-14 03:15:00,31.0,17.0,30.09,West,270,2.5,6.9,56,0.00,,,0.00,WUHU216HW,2013-03-14 07:15:00,
2013-03-14 03:20:00,31.0,17.0,30.09,WSW,248,0.2,8.1,56,0.00,,,0.00,WUHU216HW,2013-03-14 07:20:00,
2013-03-14 03:25:00,31.1,16.8,30.09,NW,315,5.4,11.4,55,0.00,,,0.00,WUHU216HW,2013-03-14 07:25:00,
2013-03-14 03:30:00,31.1,16.8,30.09,West,270,7.4,11.4,55,0.00,,,0.00,WUHU216HW,2013-03-14 07:30:00,
2013-03-14 03:35:00,31.1,16.8,30.09,West,270,1.8,8.5,55,0.00,,,0.00,WUHU216HW,2013-03-14 07:35:00,
2013-03-14 03:40:00,31.1,16.8,30.08,NNE,23,4.7,8.5,55,0.00,,,0.00,WUHU216HW,2013-03-14 07:40:00,
2013-03-14 03:45:00,31.1,16.8,30.09,West,270,1.8,9.8,55,0.00,,,0.00,WUHU216HW,2013-03-14 07:45:00,
2013-03-14 03:50:00,31.1,16.4,30.09,WNW,293,5.6,10.7,54,0.00,,,0.00,WUHU216HW,2013-03-14 07:50:00,
2013-03-14 03:55:00,31.1,16.8,30.08,ESE,113,1.3,10.7,55,0.00,,,0.00,WUHU216HW,2013-03-14 07:55:00,
2013-03-14 04:00:00,31.0,16.7,30.08,NNW,338,7.2,9.8,55,0.00,,,0.00,WUHU216HW,2013-03-14 08:00:00,
2013-03-14 04:05:00,31.0,16.7,30.08,West,270,2.5,9.8,55,0.00,,,0.00,WUHU216HW,2013-03-14 08:05:00,
2013-03-14 04:10:00,30.8,16.5,30.08,WNW,293,1.8,10.1,55,0.00,,,0.00,WUHU216HW,2013-03-14 08:10:00,
2013-03-14 04:15:00,30.8,16.5,30.09,WNW,293,2.0,10.1,55,0.00,,,0.00,WUHU216HW,2013-03-14 08:15:00,
2013-03-14 04:20:00,30.8,16.5,30.09,North,0,1.8,5.8,55,0.00,,,0.00,WUHU216HW,2013-03-14 08:20:00,
2013-03-14 04:25:00,30.8,16.5,30.09,WSW,248,5.1,6.7,55,0.00,,,0.00,WUHU216HW,2013-03-14 08:25:00,
2013-03-14 04:30:00,30.8,16.8,30.08,NNW,338,1.8,8.5,56,0.00,,,0.00,WUHU216HW,2013-03-14 08:30:00,
2013-03-14 04:35:00,31.0,17.0,30.08,NW,315,2.2,9.2,56,0.00,,,0.00,WUHU216HW,2013-03-14 08:35:00,
2013-03-14 04:40:00,31.0,17.0,30.09,West,270,3.8,9.2,56,0.00,,,0.00,WUHU216HW,2013-03-14 08:40:00,
2013-03-14 04:45:00,30.8,17.3,30.08,SW,225,1.1,6.0,57,0.00,,,0.00,WUHU216HW,2013-03-14 08:45:00,
2013-03-14 04:50:00,30.6,17.1,30.08,NW,315,1.3,5.8,57,0.00,,,0.00,WUHU216HW,2013-03-14 08:50:00,
2013-03-14 04:55:00,30.6,17.1,30.09,West,270,2.9,5.8,57,0.00,,,0.00,WUHU216HW,2013-03-14 08:55:00,
2013-03-14 05:00:00,30.4,16.9,30.08,West,270,1.3,4.3,57,0.00,,,0.00,WUHU216HW,2013-03-14 09:00:00,
2013-03-14 05:05:00,30.2,16.4,30.08,WSW,248,13.2,13.2,56,0.00,,,0.00,WUHU216HW,2013-03-14 09:05:00,
2013-03-14 05:10:00,30.4,16.6,30.08,WNW,293,8.5,13.2,56,0.00,,,0.00,WUHU216HW,2013-03-14 09:10:00,
2013-03-14 05:15:00,30.4,16.1,30.08,NNW,338,4.0,13.2,55,0.00,,,0.00,WUHU216HW,2013-03-14 09:15:00,
2013-03-14 05:20:00,30.4,16.6,30.08,West,270,4.7,10.3,56,0.00,,,0.00,WUHU216HW,2013-03-14 09:20:00,
2013-03-14 05:25:00,30.4,16.9,30.09,West,270,5.6,10.5,57,0.00,,,0.00,WUHU216HW,2013-03-14 09:25:00,
2013-03-14 05:30:00,30.2,17.6,30.09,West,270,5.6,11.4,59,0.00,,,0.00,WUHU216HW,2013-03-14 09:30:00,
2013-03-14 05:35:00,30.2,18.0,30.09,WNW,293,7.2,11.4,60,0.00,,,0.00,WUHU216HW,2013-03-14 09:35:00,
2013-03-14 05:40:00,30.2,17.6,30.09,West,270,10.5,10.5,59,0.00,,,0.00,WUHU216HW,2013-03-14 09:40:00,
2013-03-14 05:45:00,30.2,17.6,30.10,NW,315,4.7,12.8,59,0.00,,,0.00,WUHU216HW,2013-03-14 09:45:00,
2013-03-14 05:50:00,30.2,18.0,30.09,WNW,293,9.2,12.8,60,0.00,,,0.00,WUHU216HW,2013-03-14 09:50:00,
2013-03-14 05:55:00,30.1,17.0,30.09,WSW,248,6.7,12.5,58,0.00,,,0.00,WUHU216HW,2013-03-14 09:55:00,
2013-03-14 06:00:00,30.2,16.4,30.09,West,270,5.4,13.2,56,0.00,,,0.00,WUHU216HW,2013-03-14 10:00:00,
2013-03-14 06:05:00,30.2,15.9,30.09,West,270,12.8,17.7,55,0.00,,,0.00,WUHU216HW,2013-03-14 10:05:00,
2013-03-14 06:10:00,30.2,15.5,30.09,NW,315,6.9,18.6,54,0.00,,,0.00,WUHU216HW,2013-03-14 10:10:00,
2013-03-14 06:15:00,30.2,15.9,30.09,NW,315,4.5,18.6,55,0.00,,,0.00,WUHU216HW,2013-03-14 10:15:00,
2013-03-14 06:20:00,30.2,15.5,30.09,West,270,10.5,16.8,54,0.00,,,0.00,WUHU216HW,2013-03-14 10:20:00,
2013-03-14 06:25:00,30.2,15.5,30.09,WNW,293,6.3,17.0,54,0.00,,,0.00,WUHU216HW,2013-03-14 10:25:00,
2013-03-14 06:30:00,30.1,15.4,30.10,West,270,8.7,17.0,54,0.00,,,0.00,WUHU216HW,2013-03-14 10:30:00,
2013-03-14 06:35:00,30.1,14.9,30.10,West,270,11.4,20.1,53,0.00,,,0.00,WUHU216HW,2013-03-14 10:35:00,
2013-03-14 06:40:00,30.2,15.1,30.10,West,270,5.8,20.1,53,0.00,,,0.00,WUHU216HW,2013-03-14 10:40:00,
2013-03-14 06:45:00,30.1,14.5,30.10,NNW,338,10.5,12.1,52,0.00,,,0.00,WUHU216HW,2013-03-14 10:45:00,
2013-03-14 06:50:00,30.1,14.9,30.10,WNW,293,6.3,12.8,53,0.00,,,0.00,WUHU216HW,2013-03-14 10:50:00,
2013-03-14 06:55:00,30.1,14.9,30.10,WNW,293,11.0,12.8,53,0.00,,,0.00,WUHU216HW,2013-03-14 10:55:00,
2013-03-14 07:00:00,29.9,14.8,30.10,West,270,5.6,11.0,53,0.00,,,0.00,WUHU216HW,2013-03-14 11:00:00,
2013-03-14 07:05:00,29.9,14.8,30.10,WNW,293,6.3,11.0,53,0.00,,,0.00,WUHU216HW,2013-03-14 11:05:00,
2013-03-14 07:10:00,29.9,14.8,30.10,West,270,9.2,12.8,53,0.00,,,0.00,WUHU216HW,2013-03-14 11:10:00,
2013-03-14 07:15:00,29.9,14.8,30.11,WNW,293,7.4,12.8,53,0.00,,,0.00,WUHU216HW,2013-03-14 11:15:00,
2013-03-14 07:20:00,29.9,14.8,30.11,WNW,293,4.7,15.7,53,0.00,,,0.00,WUHU216HW,2013-03-14 11:20:00,
2013-03-14 07:25:00,30.1,14.5,30.11,WSW,248,9.2,15.7,52,0.00,,,0.00,WUHU216HW,2013-03-14 11:25:00,
2013-03-14 07:30:00,30.1,14.5,30.11,West,270,12.5,13.6,52,0.00,,,0.00,WUHU216HW,2013-03-14 11:30:00,
2013-03-14 07:35:00,30.2,14.7,30.12,West,270,11.4,12.5,52,0.00,,,0.00,WUHU216HW,2013-03-14 11:35:00,
2013-03-14 07:40:00,30.1,14.5,30.12,NNW,338,4.7,12.5,52,0.00,,,0.00,WUHU216HW,2013-03-14 11:40:00,
2013-03-14 07:45:00,30.1,14.5,30.12,West,270,9.8,13.9,52,0.00,,,0.00,WUHU216HW,2013-03-14 11:45:00,
2013-03-14 07:50:00,30.2,14.7,30.12,North,0,4.9,15.4,52,0.00,,,0.00,WUHU216HW,2013-03-14 11:50:00,
2013-03-14 07:55:00,30.2,14.7,30.13,NW,315,4.3,15.4,52,0.00,,,0.00,WUHU216HW,2013-03-14 11:55:00,
2013-03-14 08:00:00,30.2,14.7,30.13,West,270,7.2,11.4,52,0.00,,,0.00,WUHU216HW,2013-03-14 12:00:00,
2013-03-14 08:05:00,30.2,14.3,30.13,West,270,8.5,15.0,51,0.00,,,0.00,WUHU216HW,2013-03-14 12:05:00,
2013-03-14 08:10:00,30.4,14.1,30.14,West,270,11.0,15.0,50,0.00,,,0.00,WUHU216HW,2013-03-14 12:10:00,
2013-03-14 08:15:00,30.6,14.2,30.14,West,270,4.5,11.2,50,0.00,,,0.00,WUHU216HW,2013-03-14 12:15:00,
2013-03-14 08:20:00,31.0,14.1,30.14,WNW,293,6.3,11.4,49,0.00,,,0.00,WUHU216HW,2013-03-14 12:20:00,
2013-03-14 08:25:00,31.3,14.3,30.14,WNW,293,6.5,11.4,49,0.00,,,0.00,WUHU216HW,2013-03-14 12:25:00,
2013-03-14 08:30:00,31.5,14.5,30.14,NNW,338,4.0,11.4,49,0.00,,,0.00,WUHU216HW,2013-03-14 12:30:00,
2013-03-14 08:35:00,31.9,14.3,30.14,WNW,293,4.5,13.6,48,0.00,,,0.00,WUHU216HW,2013-03-14 12:35:00,
2013-03-14 08:40:00,32.0,14.0,30.15,NW,315,11.4,15.0,47,0.00,,,0.00,WUHU216HW,2013-03-14 12:40:00,
2013-03-14 08:45:00,32.0,14.5,30.14,NNW,338,4.5,15.0,48,0.00,,,0.00,WUHU216HW,2013-03-14 12:45:00,
2013-03-14 08:50:00,32.2,14.7,30.15,NW,315,7.8,13.6,48,0.00,,,0.00,WUHU216HW,2013-03-14 12:50:00,
2013-03-14 08:55:00,32.2,14.1,30.14,West,270,5.6,13.6,47,0.00,,,0.00,WUHU216HW,2013-03-14 12:55:00,
2013-03-14 09:00:00,32.4,14.3,30.15,West,270,4.7,13.6,47,0.00,,,0.00,WUHU216HW,2013-03-14 13:00:00,
2013-03-14 09:05:00,32.8,14.6,30.15,West,270,10.1,11.9,47,0.00,,,0.00,WUHU216HW,2013-03-14 13:05:00,
2013-03-14 09:10:00,32.9,14.8,30.15,West,270,13.4,13.4,47,0.00,,,0.00,WUHU216HW,2013-03-14 13:10:00,
2013-03-14 09:15:00,32.6,14.0,30.15,WNW,293,6.9,17.2,46,0.00,,,0.00,WUHU216HW,2013-03-14 13:15:00,
2013-03-14 09:20:00,32.9,13.8,30.15,West,270,13.4,17.2,45,0.00,,,0.00,WUHU216HW,2013-03-14 13:20:00,
2013-03-14 09:25:00,32.9,13.2,30.15,West,270,6.9,15.4,44,0.00,,,0.00,WUHU216HW,2013-03-14 13:25:00,
2013-03-14 09:30:00,33.1,13.4,30.15,West,270,8.1,15.4,44,0.00,,,0.00,WUHU216HW,2013-03-14 13:30:00,
2013-03-14 09:35:00,33.3,13.1,30.16,West,270,5.6,17.2,43,0.00,,,0.00,WUHU216HW,2013-03-14 13:35:00,
2013-03-14 09:40:00,33.3,13.6,30.16,WNW,293,4.0,17.2,44,0.00,,,0.00,WUHU216HW,2013-03-14 13:40:00,
2013-03-14 09:45:00,33.5,12.8,30.15,West,270,14.3,19.2,42,0.00,,,0.00,WUHU216HW,2013-03-14 13:45:00,
2013-03-14 09:50:00,33.1,13.0,30.16,WNW,293,7.8,19.2,43,0.00,,,0.00,WUHU216HW,2013-03-14 13:50:00,
2013-03-14 09:55:00,33.1,13.0,30.16,WNW,293,7.4,16.8,43,0.00,,,0.00,WUHU216HW,2013-03-14 13:55:00,
2013-03-14 10:00:00,33.5,13.8,30.16,West,270,6.3,11.4,44,0.00,,,0.00,WUHU216HW,2013-03-14 14:00:00,
2013-03-14 10:05:00,33.5,13.2,30.15,WSW,248,19.0,19.0,43,0.00,,,0.00,WUHU216HW,2013-03-14 14:05:00,
2013-03-14 10:10:00,33.5,13.2,30.15,WNW,293,9.8,19.0,43,0.00,,,0.00,WUHU216HW,2013-03-14 14:10:00,
2013-03-14 10:15:00,33.7,13.4,30.15,North,0,10.1,19.0,43,0.00,,,0.00,WUHU216HW,2013-03-14 14:15:00,
2013-03-14 10:20:00,34.2,14.4,30.15,West,270,9.8,17.0,44,0.00,,,0.00,WUHU216HW,2013-03-14 14:20:00,
2013-03-14 10:25:00,34.6,14.2,30.15,WNW,293,6.3,13.2,43,0.00,,,0.00,WUHU216HW,2013-03-14 14:25:00,
2013-03-14 10:30:00,34.7,14.4,30.15,WSW,248,12.1,12.8,43,0.00,,,0.00,WUHU216HW,2013-03-14 14:30:00,
2013-03-14 10:35:00,34.9,14.6,30.15,WNW,293,13.9,13.9,43,0.00,,,0.00,WUHU216HW,2013-03-14 14:35:00,
2013-03-14 10:40:00,34.9,14.6,30.14,West,270,10.5,14.8,43,0.00,,,0.00,WUHU216HW,2013-03-14 14:40:00,
2013-03-14 10:45:00,35.1,14.8,30.14,West,270,6.0,18.3,43,0.00,,,0.00,WUHU216HW,2013-03-14 14:45:00,
2013-03-14 10:50:00,35.6,15.2,30.14,West,270,4.7,18.3,43,0.00,,,0.00,WUHU216HW,2013-03-14 14:50:00,
2013-03-14 10:55:00,36.2,15.8,30.14,West,270,5.4,12.5,43,0.00,,,0.00,WUHU216HW,2013-03-14 14:55:00,
2013-03-14 11:00:00,36.7,16.7,30.14,NE,45,1.1,9.8,44,0.00,,,0.00,WUHU216HW,2013-03-14 15:00:00,
2013-03-14 11:05:00,37.1,16.6,30.14,WSW,248,4.9,8.3,43,0.00,,,0.00,WUHU216HW,2013-03-14 15:05:00,
2013-03-14 11:10:00,36.9,16.4,30.13,WSW,248,9.4,16.8,43,0.00,,,0.00,WUHU216HW,2013-03-14 15:10:00,
2013-03-14 11:15:00,37.3,17.2,30.13,West,270,6.3,16.8,44,0.00,,,0.00,WUHU216HW,2013-03-14 15:15:00,
2013-03-14 11:20:00,37.4,16.4,30.13,WNW,293,7.6,13.4,42,0.00,,,0.00,WUHU216HW,2013-03-14 15:20:00,
2013-03-14 11:25:00,37.1,16.0,30.13,WNW,293,8.1,13.2,42,0.00,,,0.00,WUHU216HW,2013-03-14 15:25:00,
2013-03-14 11:30:00,37.8,16.7,30.12,WNW,293,5.6,13.2,42,0.00,,,0.00,WUHU216HW,2013-03-14 15:30:00,
2013-03-14 11:35:00,38.2,16.5,30.12,NW,315,3.6,14.8,41,0.00,,,0.00,WUHU216HW,2013-03-14 15:35:00,
2013-03-14 11:40:00,37.8,16.1,30.12,NW,315,3.6,15.0,41,0.00,,,0.00,WUHU216HW,2013-03-14 15:40:00,
2013-03-14 11:45:00,37.8,15.7,30.12,WNW,293,8.5,20.1,40,0.00,,,0.00,WUHU216HW,2013-03-14 15:45:00,
2013-03-14 11:50:00,37.8,16.1,30.12,WNW,293,6.0,20.1,41,0.00,,,0.00,WUHU216HW,2013-03-14 15:50:00,
2013-03-14 11:55:00,38.3,16.1,30.12,NNW,338,7.6,14.8,40,0.00,,,0.00,WUHU216HW,2013-03-14 15:55:00,
2013-03-14 12:00:00,38.5,16.8,30.12,North,0,2.5,15.9,41,0.00,,,0.00,WUHU216HW,2013-03-14 16:00:00,
2013-03-14 12:05:00,38.9,16.6,30.12,NE,45,7.6,15.9,40,0.00,,,0.00,WUHU216HW,2013-03-14 16:05:00,
2013-03-14 12:10:00,39.2,16.3,30.12,WSW,248,3.4,13.6,39,0.00,,,0.00,WUHU216HW,2013-03-14 16:10:00,
2013-03-14 12:15:00,39.6,16.6,30.12,WSW,248,4.9,14.3,39,0.00,,,0.00,WUHU216HW,2013-03-14 16:15:00,
2013-03-14 12:20:00,39.4,16.5,30.12,South,180,10.1,14.3,39,0.00,,,0.00,WUHU216HW,2013-03-14 16:20:00,
2013-03-14 12:25:00,39.4,16.5,30.12,North,0,4.7,14.8,39,0.00,,,0.00,WUHU216HW,2013-03-14 16:25:00,
2013-03-14 12:30:00,39.6,15.9,30.12,West,270,12.1,17.2,38,0.00,,,0.00,WUHU216HW,2013-03-14 16:30:00,
2013-03-14 12:35:00,40.0,17.6,30.11,West,270,9.4,17.2,40,0.00,,,0.00,WUHU216HW,2013-03-14 16:35:00,
2013-03-14 12:40:00,40.0,16.9,30.11,WNW,293,8.7,16.8,39,0.00,,,0.00,WUHU216HW,2013-03-14 16:40:00,
2013-03-14 12:45:00,39.6,16.6,30.11,NW,315,18.6,21.5,39,0.00,,,0.00,WUHU216HW,2013-03-14 16:45:00,
2013-03-14 12:50:00,39.6,15.9,30.11,WNW,293,12.5,21.5,38,0.00,,,0.00,WUHU216HW,2013-03-14 16:50:00,
2013-03-14 12:55:00,39.4,15.8,30.11,West,270,11.4,18.6,38,0.00,,,0.00,WUHU216HW,2013-03-14 16:55:00,
2013-03-14 13:00:00,40.0,16.9,30.11,NE,45,2.9,16.3,39,0.00,,,0.00,WUHU216HW,2013-03-14 17:00:00,
2013-03-14 13:05:00,41.0,17.3,30.11,North,0,4.7,16.3,38,0.00,,,0.00,WUHU216HW,2013-03-14 17:05:00,
2013-03-14 13:10:00,41.4,17.6,30.11,West,270,4.7,13.2,38,0.00,,,0.00,WUHU216HW,2013-03-14 17:10:00,
2013-03-14 13:15:00,40.9,15.8,30.11,WSW,248,15.4,15.7,36,0.00,,,0.00,WUHU216HW,2013-03-14 17:15:00,
2013-03-14 13:20:00,40.7,16.9,30.11,North,0,15.7,19.2,38,0.00,,,0.00,WUHU216HW,2013-03-14 17:20:00,
2013-03-14 13:25:00,40.9,16.5,30.10,NW,315,14.8,19.2,37,0.00,,,0.00,WUHU216HW,2013-03-14 17:25:00,
2013-03-14 13:30:00,40.9,16.5,30.10,WSW,248,9.2,15.7,37,0.00,,,0.00,WUHU216HW,2013-03-14 17:30:00,
2013-03-14 13:35:00,41.0,15.9,30.10,NNW,338,12.8,14.3,36,0.00,,,0.00,WUHU216HW,2013-03-14 17:35:00,
2013-03-14 13:40:00,40.9,15.8,30.10,West,270,17.7,21.7,36,0.00,,,0.00,WUHU216HW,2013-03-14 17:40:00,
2013-03-14 13:45:00,41.2,16.7,30.10,West,270,7.2,21.7,37,0.00,,,0.00,WUHU216HW,2013-03-14 17:45:00,
2013-03-14 13:50:00,41.4,16.9,30.10,NW,315,4.0,20.8,37,0.00,,,0.00,WUHU216HW,2013-03-14 17:50:00,
2013-03-14 13:55:00,41.9,17.4,30.10,WNW,293,12.5,13.4,37,0.00,,,0.00,WUHU216HW,2013-03-14 17:55:00,
2013-03-14 14:00:00,42.1,16.9,30.09,WNW,293,3.6,13.4,36,0.00,,,0.00,WUHU216HW,2013-03-14 18:00:00,
2013-03-14 14:05:00,42.3,17.0,30.09,West,270,3.6,13.4,36,0.00,,,0.00,WUHU216HW,2013-03-14 18:05:00,
2013-03-14 14:10:00,42.1,16.9,30.10,NW,315,9.6,15.4,36,0.00,,,0.00,WUHU216HW,2013-03-14 18:10:00,
2013-03-14 14:15:00,42.1,16.9,30.09,NW,315,6.0,15.4,36,0.00,,,0.00,WUHU216HW,2013-03-14 18:15:00,
2013-03-14 14:20:00,42.5,17.2,30.08,SW,225,6.3,12.5,36,0.00,,,0.00,WUHU216HW,2013-03-14 18:20:00,
2013-03-14 14:25:00,43.2,17.8,30.08,West,270,4.7,11.2,36,0.00,,,0.00,WUHU216HW,2013-03-14 18:25:00,
2013-03-14 14:30:00,43.7,18.3,30.08,WSW,248,6.9,11.2,36,0.00,,,0.00,WUHU216HW,2013-03-14 18:30:00,
2013-03-14 14:35:00,43.4,17.3,30.08,North,0,4.0,10.5,35,0.00,,,0.00,WUHU216HW,2013-03-14 18:35:00,
2013-03-14 14:40:00,43.2,17.2,30.08,West,270,3.4,11.0,35,0.00,,,0.00,WUHU216HW,2013-03-14 18:40:00,
2013-03-14 14:45:00,43.0,17.0,30.08,West,270,8.5,17.4,35,0.00,,,0.00,WUHU216HW,2013-03-14 18:45:00,
2013-03-14 14:50:00,43.2,15.9,30.08,WSW,248,17.0,17.4,33,0.00,,,0.00,WUHU216HW,2013-03-14 18:50:00,
2013-03-14 14:55:00,42.8,16.8,30.08,WNW,293,3.4,17.0,35,0.00,,,0.00,WUHU216HW,2013-03-14 18:55:00,
2013-03-14 15:00:00,42.8,16.2,30.07,West,270,14.5,17.0,34,0.00,,,0.00,WUHU216HW,2013-03-14 19:00:00,
2013-03-14 15:05:00,43.0,17.0,30.07,NW,315,13.4,17.0,35,0.00,,,0.00,WUHU216HW,2013-03-14 19:05:00,
2013-03-14 15:10:00,43.4,16.7,30.07,NW,315,2.7,17.0,34,0.00,,,0.00,WUHU216HW,2013-03-14 19:10:00,
2013-03-14 15:15:00,43.6,16.1,30.07,West,270,9.2,14.3,33,0.00,,,0.00,WUHU216HW,2013-03-14 19:15:00,
2013-03-14 15:20:00,43.2,17.2,30.07,SW,225,5.8,22.4,35,0.00,,,0.00,WUHU216HW,2013-03-14 19:20:00,
2013-03-14 15:25:00,43.6,16.1,30.06,NW,315,6.3,22.4,33,0.00,,,0.00,WUHU216HW,2013-03-14 19:25:00,
2013-03-14 15:30:00,43.6,16.1,30.07,West,270,6.5,14.3,33,0.00,,,0.00,WUHU216HW,2013-03-14 19:30:00,
2013-03-14 15:35:00,43.0,15.7,30.06,WSW,248,10.7,15.4,33,0.00,,,0.00,WUHU216HW,2013-03-14 19:35:00,
2013-03-14 15:40:00,43.2,15.9,30.07,West,270,7.6,16.1,33,0.00,,,0.00,WUHU216HW,2013-03-14 19:40:00,
2013-03-14 15:45:00,43.4,16.0,30.07,NW,315,8.3,16.6,33,0.00,,,0.00,WUHU216HW,2013-03-14 19:45:00,
2013-03-14 15:50:00,43.7,16.3,30.07,NNW,338,6.3,16.6,33,0.00,,,0.00,WUHU216HW,2013-03-14 19:50:00,
2013-03-14 15:55:00,43.4,16.0,30.07,North,0,6.5,18.1,33,0.00,,,0.00,WUHU216HW,2013-03-14 19:55:00,
2013-03-14 16:00:00,43.4,16.0,30.07,WNW,293,8.3,18.1,33,0.00,,,0.00,WUHU216HW,2013-03-14 20:00:00,
2013-03-14 16:05:00,43.7,17.0,30.07,NW,315,9.8,14.5,34,0.00,,,0.00,WUHU216HW,2013-03-14 20:05:00,
2013-03-14 16:10:00,43.6,16.8,30.06,West,270,4.3,14.5,34,0.00,,,0.00,WUHU216HW,2013-03-14 20:10:00,
2013-03-14 16:15:00,43.9,16.5,30.07,WNW,293,7.6,13.6,33,0.00,,,0.00,WUHU216HW,2013-03-14 20:15:00,
2013-03-14 16:20:00,44.3,16.8,30.07,West,270,15.2,15.2,33,0.00,,,0.00,WUHU216HW,2013-03-14 20:20:00,
2013-03-14 16:25:00,43.7,16.3,30.07,WNW,293,14.3,15.2,33,0.00,,,0.00,WUHU216HW,2013-03-14 20:25:00,
2013-03-14 16:30:00,43.9,17.1,30.07,West,270,10.3,15.2,34,0.00,,,0.00,WUHU216HW,2013-03-14 20:30:00,
2013-03-14 16:35:00,43.9,16.5,30.07,WNW,293,9.4,15.7,33,0.00,,,0.00,WUHU216HW,2013-03-14 20:35:00,
2013-03-14 16:40:00,43.7,16.3,30.07,WNW,293,13.2,18.6,33,0.00,,,0.00,WUHU216HW,2013-03-14 20:40:00,
2013-03-14 16:45:00,43.6,16.1,30.07,West,270,7.6,18.6,33,0.00,,,0.00,WUHU216HW,2013-03-14 20:45:00,
2013-03-14 16:50:00,43.9,17.1,30.07,West,270,4.3,14.1,34,0.00,,,0.00,WUHU216HW,2013-03-14 20:50:00,
2013-03-14 16:55:00,44.3,16.8,30.07,West,270,9.8,14.1,33,0.00,,,0.00,WUHU216HW,2013-03-14 20:55:00,
2013-03-14 17:00:00,44.3,16.8,30.07,West,270,8.1,11.0,33,0.00,,,0.00,WUHU216HW,2013-03-14 21:00:00,
2013-03-14 17:05:00,44.3,16.8,30.07,West,270,13.0,13.0,33,0.00,,,0.00,WUHU216HW,2013-03-14 21:05:00,
2013-03-14 17:10:00,44.1,16.7,30.07,West,270,7.8,15.0,33,0.00,,,0.00,WUHU216HW,2013-03-14 21:10:00,
2013-03-14 17:15:00,44.3,17.5,30.07,WSW,248,3.8,15.0,34,0.00,,,0.00,WUHU216HW,2013-03-14 21:15:00,
2013-03-14 17:20:00,44.1,16.7,30.07,West,270,13.0,13.0,33,0.00,,,0.00,WUHU216HW,2013-03-14 21:20:00,
2013-03-14 17:25:00,43.7,16.3,30.07,West,270,13.4,13.4,33,0.00,,,0.00,WUHU216HW,2013-03-14 21:25:00,
2013-03-14 17:30:00,44.1,16.7,30.07,West,270,9.4,13.4,33,0.00,,,0.00,WUHU216HW,2013-03-14 21:30:00,
2013-03-14 17:35:00,43.6,16.1,30.06,West,270,6.3,13.6,33,0.00,,,0.00,WUHU216HW,2013-03-14 21:35:00,
2013-03-14 17:40:00,43.9,16.5,30.06,NW,315,5.4,13.6,33,0.00,,,0.00,WUHU216HW,2013-03-14 21:40:00,
2013-03-14 17:45:00,44.1,16.7,30.06,WNW,293,7.6,12.1,33,0.00,,,0.00,WUHU216HW,2013-03-14 21:45:00,
2013-03-14 17:50:00,44.1,16.7,30.06,WNW,293,4.9,9.2,33,0.00,,,0.00,WUHU216HW,2013-03-14 21:50:00,
2013-03-14 17:55:00,43.9,17.1,30.06,West,270,7.6,9.2,34,0.00,,,0.00,WUHU216HW,2013-03-14 21:55:00,
2013-03-14 18:00:00,43.9,17.1,30.06,West,270,4.0,9.2,34,0.00,,,0.00,WUHU216HW,2013-03-14 22:00:00,
2013-03-14 18:05:00,43.4,16.0,30.06,West,270,6.0,15.9,33,0.00,,,0.00,WUHU216HW,2013-03-14 22:05:00,
2013-03-14 18:10:00,43.2,15.9,30.07,West,270,4.0,15.9,33,0.00,,,0.00,WUHU216HW,2013-03-14 22:10:00,
2013-03-14 18:15:00,43.0,15.7,30.07,NNW,338,2.2,14.8,33,0.00,,,0.00,WUHU216HW,2013-03-14 22:15:00,
2013-03-14 18:20:00,43.2,15.9,30.07,West,270,9.6,11.6,33,0.00,,,0.00,WUHU216HW,2013-03-14 22:20:00,
2013-03-14 18:25:00,43.0,15.7,30.06,WNW,293,1.1,11.9,33,0.00,,,0.00,WUHU216HW,2013-03-14 22:25:00,
2013-03-14 18:30:00,43.0,16.3,30.06,WNW,293,8.5,11.9,34,0.00,,,0.00,WUHU216HW,2013-03-14 22:30:00,
2013-03-14 18:35:00,42.7,16.0,30.06,West,270,2.5,11.4,34,0.00,,,0.00,WUHU216HW,2013-03-14 22:35:00,
2013-03-14 18:40:00,42.3,16.4,30.06,NNW,338,5.4,15.4,35,0.00,,,0.00,WUHU216HW,2013-03-14 22:40:00,
2013-03-14 18:45:00,42.1,16.2,30.07,WSW,248,6.0,15.4,35,0.00,,,0.00,WUHU216HW,2013-03-14 22:45:00,
2013-03-14 18:50:00,41.8,15.9,30.07,SW,225,4.0,13.9,35,0.00,,,0.00,WUHU216HW,2013-03-14 22:50:00,
2013-03-14 18:55:00,41.6,16.4,30.06,North,0,6.5,13.4,36,0.00,,,0.00,WUHU216HW,2013-03-14 22:55:00,
2013-03-14 19:00:00,41.4,16.3,30.06,WNW,293,3.4,15.0,36,0.00,,,0.00,WUHU216HW,2013-03-14 23:00:00,
2013-03-14 19:05:00,40.9,15.8,30.06,NE,45,4.5,15.0,36,0.00,,,0.00,WUHU216HW,2013-03-14 23:05:00,
2013-03-14 19:10:00,40.7,16.3,30.07,NW,315,4.0,11.4,37,0.00,,,0.00,WUHU216HW,2013-03-14 23:10:00,
2013-03-14 19:15:00,40.5,16.7,30.07,ENE,68,2.9,10.5,38,0.00,,,0.00,WUHU216HW,2013-03-14 23:15:00,
2013-03-14 19:20:00,40.1,16.5,30.07,WSW,248,5.8,7.8,38,0.00,,,0.00,WUHU216HW,2013-03-14 23:20:00,
2013-03-14 19:25:00,40.0,16.9,30.07,NW,315,3.4,9.6,39,0.00,,,0.00,WUHU216HW,2013-03-14 23:25:00,
2013-03-14 19:30:00,40.0,16.9,30.08,NNE,23,3.8,9.6,39,0.00,,,0.00,WUHU216HW,2013-03-14 23:30:00,
2013-03-14 19:35:00,39.8,16.7,30.08,WNW,293,4.0,8.5,39,0.00,,,0.00,WUHU216HW,2013-03-14 23:35:00,
2013-03-14 19:41:00,39.8,16.7,30.08,NNW,338,2.5,11.2,39,0.00,,,0.00,WUHU216HW,2013-03-14 23:41:00,
2013-03-14 19:46:00,39.8,16.7,30.08,West,270,4.0,11.2,39,0.00,,,0.00,WUHU216HW,2013-03-14 23:46:00,
2013-03-14 19:51:00,39.6,16.6,30.08,West,270,2.5,9.8,39,0.00,,,0.00,WUHU216HW,2013-03-14 23:51:00,
2013-03-14 19:56:00,39.4,16.5,30.09,West,270,5.4,7.4,39,0.00,,,0.00,WUHU216HW,2013-03-14 23:56:00,
2013-03-14 20:01:00,39.2,16.9,30.08,West,270,6.0,7.4,40,0.00,,,0.00,WUHU216HW,2013-03-15 00:01:00,
2013-03-14 20:06:00,39.2,16.9,30.09,WSW,248,1.6,6.0,40,0.00,,,0.00,WUHU216HW,2013-03-15 00:06:00,
2013-03-14 20:11:00,39.2,16.9,30.09,WNW,293,4.7,8.3,40,0.00,,,0.00,WUHU216HW,2013-03-15 00:11:00,
2013-03-14 20:16:00,39.2,16.9,30.09,NW,315,2.5,8.3,40,0.00,,,0.00,WUHU216HW,2013-03-15 00:16:00,
2013-03-14 20:21:00,39.1,16.7,30.09,West,270,6.9,6.9,40,0.00,,,0.00,WUHU216HW,2013-03-15 00:21:00,
2013-03-14 20:26:00,39.1,16.7,30.09,West,270,1.8,7.6,40,0.00,,,0.00,WUHU216HW,2013-03-15 00:26:00,
2013-03-14 20:31:00,38.9,17.1,30.09,WNW,293,3.1,7.6,41,0.00,,,0.00,WUHU216HW,2013-03-15 00:31:00,
2013-03-14 20:36:00,38.7,16.9,30.09,West,270,3.1,4.7,41,0.00,,,0.00,WUHU216HW,2013-03-15 00:36:00,
2013-03-14 20:41:00,38.5,16.8,30.09,SW,225,0.9,4.7,41,0.00,,,0.00,WUHU216HW,2013-03-15 00:41:00,
2013-03-14 20:46:00,38.3,17.2,30.09,WSW,248,3.1,4.0,42,0.00,,,0.00,WUHU216HW,2013-03-15 00:46:00,
2013-03-14 20:51:00,38.2,17.0,30.09,WNW,293,3.8,3.8,42,0.00,,,0.00,WUHU216HW,2013-03-15 00:51:00,
2013-03-14 20:56:00,38.2,17.0,30.08,WSW,248,2.7,3.8,42,0.00,,,0.00,WUHU216HW,2013-03-15 00:56:00,
2013-03-14 21:01:00,38.0,17.4,30.08,West,270,2.0,6.3,43,0.00,,,0.00,WUHU216HW,2013-03-15 01:01:00,
2013-03-14 21:06:00,37.8,17.2,30.09,West,270,1.3,6.3,43,0.00,,,0.00,WUHU216HW,2013-03-15 01:06:00,
2013-03-14 21:11:00,37.6,17.0,30.08,West,270,2.0,3.1,43,0.00,,,0.00,WUHU216HW,2013-03-15 01:11:00,
2013-03-14 21:16:00,37.8,17.2,30.08,West,270,1.6,3.8,43,0.00,,,0.00,WUHU216HW,2013-03-15 01:16:00,
2013-03-14 21:21:00,37.6,17.6,30.08,West,270,1.3,3.8,44,0.00,,,0.00,WUHU216HW,2013-03-15 01:21:00,
2013-03-14 21:26:00,37.4,17.4,30.08,WSW,248,1.8,3.4,44,0.00,,,0.00,WUHU216HW,2013-03-15 01:26:00,
2013-03-14 21:31:00,37.4,16.8,30.08,WSW,248,2.9,4.0,43,0.00,,,0.00,WUHU216HW,2013-03-15 01:31:00,
2013-03-14 21:36:00,37.4,17.9,30.09,NW,315,1.6,4.0,45,0.00,,,0.00,WUHU216HW,2013-03-15 01:36:00,
2013-03-14 21:41:00,37.3,17.2,30.09,West,270,0.0,2.9,44,0.00,,,0.00,WUHU216HW,2013-03-15 01:41:00,
2013-03-14 21:46:00,36.7,17.3,30.09,West,270,0.0,1.8,45,0.00,,,0.00,WUHU216HW,2013-03-15 01:46:00,
2013-03-14 21:51:00,36.0,16.7,30.09,West,270,0.7,1.3,45,0.00,,,0.00,WUHU216HW,2013-03-15 01:51:00,
2013-03-14 21:57:00,35.6,16.3,30.09,West,270,0.2,1.3,45,0.00,,,0.00,WUHU216HW,2013-03-15 01:57:00,
2013-03-14 22:02:00,35.6,16.3,30.09,WNW,293,1.1,1.8,45,0.00,,,0.00,WUHU216HW,2013-03-15 02:02:00,
2013-03-14 22:07:00,35.6,16.3,30.09,NW,315,0.9,1.8,45,0.00,,,0.00,WUHU216HW,2013-03-15 02:07:00,
2013-03-14 22:12:00,35.5,16.7,30.09,West,270,1.1,3.6,46,0.00,,,0.00,WUHU216HW,2013-03-15 02:12:00,
2013-03-14 22:17:00,35.5,16.7,30.09,WNW,293,1.8,3.6,46,0.00,,,0.00,WUHU216HW,2013-03-15 02:17:00,
2013-03-14 22:22:00,35.5,17.2,30.09,West,270,1.8,3.1,47,0.00,,,0.00,WUHU216HW,2013-03-15 02:22:00,
2013-03-14 22:27:00,35.3,16.5,30.09,WSW,248,2.9,3.6,46,0.00,,,0.00,WUHU216HW,2013-03-15 02:27:00,
2013-03-14 22:32:00,35.5,16.7,30.09,NNW,338,2.9,4.5,46,0.00,,,0.00,WUHU216HW,2013-03-15 02:32:00,
2013-03-14 22:37:00,35.8,17.5,30.09,West,270,1.8,4.5,47,0.00,,,0.00,WUHU216HW,2013-03-15 02:37:00,
2013-03-14 22:42:00,36.2,16.7,30.09,NW,315,1.6,6.3,45,0.00,,,0.00,WUHU216HW,2013-03-15 02:42:00,
2013-03-14 22:47:00,36.4,16.9,30.09,West,270,2.5,6.3,45,0.00,,,0.00,WUHU216HW,2013-03-15 02:47:00,
2013-03-14 22:52:00,36.2,16.7,30.09,West,270,2.5,4.0,45,0.00,,,0.00,WUHU216HW,2013-03-15 02:52:00,
2013-03-14 22:57:00,36.4,16.9,30.09,WNW,293,1.8,6.5,45,0.00,,,0.00,WUHU216HW,2013-03-15 02:57:00,
2013-03-14 23:02:00,36.4,16.9,30.09,WSW,248,1.1,6.5,45,0.00,,,0.00,WUHU216HW,2013-03-15 03:02:00,
2013-03-14 23:07:00,36.4,16.9,30.10,NW,315,1.6,5.6,45,0.00,,,0.00,WUHU216HW,2013-03-15 03:07:00,
2013-03-14 23:12:00,36.2,16.7,30.10,WNW,293,1.8,5.4,45,0.00,,,0.00,WUHU216HW,2013-03-15 03:12:00,
2013-03-14 23:17:00,36.4,16.9,30.10,West,270,4.7,5.6,45,0.00,,,0.00,WUHU216HW,2013-03-15 03:17:00,
2013-03-14 23:22:00,36.4,16.9,30.10,NNE,23,1.8,5.6,45,0.00,,,0.00,WUHU216HW,2013-03-15 03:22:00,
2013-03-14 23:27:00,36.4,16.9,30.10,WNW,293,2.0,4.7,45,0.00,,,0.00,WUHU216HW,2013-03-15 03:27:00,
2013-03-14 23:32:00,36.4,16.9,30.10,West,270,4.9,6.3,45,0.00,,,0.00,WUHU216HW,2013-03-15 03:32:00,
2013-03-14 23:37:00,36.4,16.9,30.10,NW,315,2.0,6.3,45,0.00,,,0.00,WUHU216HW,2013-03-15 03:37:00,
2013-03-14 23:42:00,36.4,16.9,30.10,NNW,338,0.9,4.9,45,0.00,,,0.00,WUHU216HW,2013-03-15 03:42:00,
2013-03-14 23:47:00,36.4,16.9,30.10,West,270,1.3,5.4,45,0.00,,,0.00,WUHU216HW,2013-03-15 03:47:00,
2013-03-14 23:52:00,36.5,17.1,30.10,WNW,293,3.1,6.3,45,0.00,,,0.00,WUHU216HW,2013-03-15 03:52:00,
2013-03-14 23:57:00,36.7,17.3,30.10,West,270,2.5,6.3,45,0.00,,,0.00,WUHU216HW,2013-03-15 03:57:00,